Agadir Al Massira, Morocco
Current Conditions -  °F | °C
As of 7:00 PM on Monday 20 Oct 2014 (Local Time) from GMAG Reporting Station
Clear Clear  
Wind Chill: 93°   Ceiling: Unl
Heat Index: 93°   Visibility: 6mi
Dew Point: 30°   Wind: 12mph
Humidity: 11%   Direction: 160°SSE
Pressure: 29.91"   Gusts: NA
Location:  30.33°N, 9.4°W
Report Text: GMAG 201800Z 16010KT CAVOK 34/M01 Q1013 NOSIG
Loading
Personal Weather Stations






























Interactive Weather Map
Tropical Storm Tracking
New forecast layout! Learn more

10-Day Weather Forecast

Advertisements
Track Severe Weather on mobile